Terminal Aerodrome Forecast
Issued by NWS

Home | Current Version | Previous Version | Text Only | Print | Product List | Glossary On
Versions: 1 2 3 4 5 6 7 8 9 10 11 12 13
000
FTUS43 KICT 042017 AAA
TAFRSL
TAF AMD
KRSL 042017Z 0420/0518 18017G22KT P6SM VCTS SCT050CB OVC150
      TEMPO 0420/0424 5SM TSRA BKN040CB
     FM050000 17013KT P6SM VCTS SCT050CB BKN300
     FM050300 14007KT P6SM SCT050=

USA.gov is the U.S. government's official web portal to all federal, state and local government web resources and services.